Time;durP1;ratioP1;P1;durP2;ratioP2;P2;SDS_P1;SDS_P2;PMS_P1;PMS_P2;Temp;Humidity;BMP_temperature;BMP_pressure;BME280_temperature;BME280_humidity;BME280_pressure;Samples;Min_cycle;Max_cycle;Signal;HPM_P1;HPM_P2
2022/08/16 00:00:25;;;;;;;9.15;5.62;;;;;;;22.87;66.89;98948.03;1826807;76;21068;-73
2022/08/16 00:02:52;;;;;;;6.35;4.85;;;;;;;22.86;66.43;98947.75;1820832;76;21049;-77
2022/08/16 00:05:21;;;;;;;10.50;4.85;;;;;;;22.87;65.80;98948.55;1823876;77;20986;-75
2022/08/16 00:07:50;;;;;;;8.10;4.83;;;;;;;22.90;65.58;98952.09;1821521;76;21024;-77
2022/08/16 00:10:17;;;;;;;10.30;4.90;;;;;;;22.92;65.36;98953.44;1805025;77;21061;-77
2022/08/16 00:12:44;;;;;;;9.13;5.80;;;;;;;22.96;64.92;98959.14;1815543;76;22100;-79
2022/08/16 00:15:15;;;;;;;15.75;6.10;;;;;;;23.02;64.54;98966.18;1828728;76;22410;-80
2022/08/16 00:17:42;;;;;;;9.85;5.10;;;;;;;23.08;64.35;98968.39;1787548;78;21060;-80
2022/08/16 00:20:09;;;;;;;6.55;4.85;;;;;;;23.13;63.89;98972.47;1800039;77;21042;-76
2022/08/16 00:22:37;;;;;;;9.53;5.03;;;;;;;23.22;63.58;98970.02;1805619;77;21186;-77
2022/08/16 00:25:06;;;;;;;9.83;4.87;;;;;;;23.28;63.09;98965.70;1795797;77;21585;-76
2022/08/16 00:27:32;;;;;;;11.88;4.97;;;;;;;23.36;62.63;98967.06;1804316;77;21017;-78
2022/08/16 00:30:00;;;;;;;9.85;4.97;;;;;;;23.47;62.30;98965.14;1805969;77;21034;-76
2022/08/16 00:32:27;;;;;;;9.80;5.47;;;;;;;23.52;61.92;98965.95;1809593;77;21041;-79
2022/08/16 00:34:53;;;;;;;7.80;4.83;;;;;;;23.61;61.64;98972.21;1807368;77;22174;-78
2022/08/16 00:37:23;;;;;;;13.18;5.42;;;;;;;23.67;61.51;98972.47;1807654;77;21034;-79
2022/08/16 00:39:49;;;;;;;5.70;4.83;;;;;;;23.72;61.30;98980.05;1768508;77;21019;-79
2022/08/16 00:42:17;;;;;;;9.20;5.12;;;;;;;23.77;61.47;98975.70;1803194;77;21047;-80
2022/08/16 00:44:51;;;;;;;7.92;5.00;;;;;;;23.81;61.41;98991.17;1804043;77;21046;-80
2022/08/16 00:47:18;;;;;;;9.28;5.33;;;;;;;23.85;61.60;98990.09;1794060;79;22124;-80
2022/08/16 00:49:45;;;;;;;8.28;5.33;;;;;;;23.87;61.98;98994.14;1803430;77;20998;-79
2022/08/16 00:52:11;;;;;;;7.42;5.10;;;;;;;23.88;62.34;98990.91;1795042;77;21691;-77
2022/08/16 00:54:37;;;;;;;8.73;5.25;;;;;;;23.85;62.81;98985.47;1809655;77;21089;-78
2022/08/16 00:57:04;;;;;;;9.08;5.30;;;;;;;23.82;63.34;98984.68;1804122;77;21050;-77
2022/08/16 00:59:34;;;;;;;8.35;4.78;;;;;;;23.77;63.51;98983.29;1798253;77;21112;-77
2022/08/16 01:02:02;;;;;;;9.23;5.22;;;;;;;23.72;63.98;98986.00;1813360;77;21057;-79
2022/08/16 01:04:29;;;;;;;7.00;4.97;;;;;;;23.65;63.87;98979.52;1806770;77;22306;-79
2022/08/16 01:06:55;;;;;;;6.12;4.58;;;;;;;23.61;64.32;98979.79;1793448;77;21042;-78
2022/08/16 01:09:23;;;;;;;8.33;5.42;;;;;;;23.55;64.34;98985.76;1794897;78;21056;-79
2022/08/16 01:11:50;;;;;;;11.80;5.65;;;;;;;23.53;64.37;98987.13;1795195;77;21186;-76
2022/08/16 01:14:21;;;;;;;5.78;5.17;;;;;;;23.51;64.43;98987.94;1815917;77;21070;-79
2022/08/16 01:16:47;;;;;;;6.67;5.15;;;;;;;23.50;64.44;98992.53;1780509;79;21744;-76
2022/08/16 01:19:40;;;;;;;7.80;5.28;;;;;;;23.48;64.59;99004.18;1785227;79;21545;-77
2022/08/16 01:22:12;;;;;;;13.32;6.25;;;;;;;23.47;64.62;99004.45;1818755;76;21088;-79
2022/08/16 01:24:45;;;;;;;9.25;5.78;;;;;;;23.43;67.13;99027.23;1800773;78;22456;-81
2022/08/16 01:27:19;;;;;;;13.00;6.15;;;;;;;23.28;69.77;99029.38;1826949;76;21600;-79
2022/08/16 01:29:54;;;;;;;11.48;5.60;;;;;;;23.10;70.72;99029.36;1821808;76;21092;-81
2022/08/16 01:32:20;;;;;;;11.80;6.03;;;;;;;22.87;71.91;99004.06;1800860;77;20983;-78
2022/08/16 01:34:48;;;;;;;9.50;5.92;;;;;;;22.61;73.01;99012.11;1816812;77;21085;-79
2022/08/16 01:37:14;;;;;;;8.80;6.05;;;;;;;22.39;74.27;99008.25;1808341;77;21077;-78
2022/08/16 01:39:42;;;;;;;11.55;5.62;;;;;;;22.24;75.01;99001.38;1787835;78;21612;-76
2022/08/16 01:42:08;;;;;;;15.48;6.03;;;;;;;22.17;75.88;99013.25;1804810;79;21026;-78
2022/08/16 01:44:36;;;;;;;8.43;5.95;;;;;;;22.16;76.40;99014.31;1814236;77;21098;-77
2022/08/16 01:47:04;;;;;;;7.15;6.45;;;;;;;22.11;77.03;99017.52;1808925;77;21060;-79
2022/08/16 01:49:35;;;;;;;8.15;5.92;;;;;;;22.01;77.46;98999.34;1809161;77;21198;-75
2022/08/16 01:52:06;;;;;;;7.65;5.95;;;;;;;21.94;77.57;99010.41;1808648;77;21153;-74
2022/08/16 01:54:52;;;;;;;6.15;4.83;;;;;;;21.89;77.84;99008.20;1811597;77;21260;-76
2022/08/16 01:57:20;;;;;;;10.25;5.05;;;;;;;21.92;77.30;98996.84;1807385;77;21077;-76
2022/08/16 01:59:47;;;;;;;6.33;4.90;;;;;;;21.94;76.97;98990.13;1806950;77;21565;-76
2022/08/16 02:02:15;;;;;;;8.53;5.92;;;;;;;21.91;76.01;98985.23;1804184;77;21842;-76
2022/08/16 02:04:42;;;;;;;7.83;5.42;;;;;;;21.90;75.47;98981.42;1807147;77;22131;-76
2022/08/16 02:07:11;;;;;;;7.15;5.10;;;;;;;21.88;75.36;98978.17;1810286;77;21046;-76
2022/08/16 02:09:38;;;;;;;5.85;5.00;;;;;;;21.86;75.08;98974.91;1783968;78;21089;-74
2022/08/16 02:12:07;;;;;;;9.45;5.22;;;;;;;21.83;74.72;98970.02;1791874;77;21039;-76
2022/08/16 02:14:35;;;;;;;6.20;5.25;;;;;;;21.88;74.52;98966.81;1804810;78;21107;-76
2022/08/16 02:17:05;;;;;;;8.05;5.60;;;;;;;21.96;74.35;98978.51;1810857;79;21046;-74
2022/08/16 02:19:34;;;;;;;9.88;5.75;;;;;;;21.95;74.49;98974.16;1768032;78;21093;-76
2022/08/16 02:22:04;;;;;;;9.55;5.90;;;;;;;21.93;74.38;98972.26;1798791;77;21034;-81
2022/08/16 02:24:32;;;;;;;9.08;6.20;;;;;;;21.90;74.50;98975.47;1811816;78;21010;-83
2022/08/16 02:26:59;;;;;;;11.73;6.20;;;;;;;21.87;75.57;98969.80;1813439;79;21092;-83
2022/08/16 02:29:25;;;;;;;10.55;5.45;;;;;;;21.87;77.67;98967.09;1789827;78;21687;-81
2022/08/16 02:31:52;;;;;;;9.73;5.78;;;;;;;21.90;78.62;98969.26;1799700;78;21062;-82
2022/08/16 02:34:19;;;;;;;8.70;5.62;;;;;;;21.85;79.63;98959.78;1810523;78;21030;-83
2022/08/16 02:36:47;;;;;;;8.78;6.08;;;;;;;21.75;80.41;98966.75;1799843;77;21081;-81
2022/08/16 02:39:16;;;;;;;9.03;5.60;;;;;;;21.67;81.11;98952.89;1807007;78;21216;-87
2022/08/16 02:41:46;;;;;;;7.87;5.75;;;;;;;21.67;81.68;98950.19;1803710;78;21029;-83
2022/08/16 02:44:14;;;;;;;11.18;6.15;;;;;;;21.71;82.24;98945.38;1806315;77;21053;-84
2022/08/16 02:46:43;;;;;;;9.20;6.00;;;;;;;21.63;82.21;98944.48;1786374;77;21077;-85
2022/08/16 02:49:10;;;;;;;9.18;6.40;;;;;;;21.52;82.57;98944.97;1811171;78;21117;-84
2022/08/16 02:51:38;;;;;;;12.35;5.78;;;;;;;21.39;82.54;98939.97;1795934;77;21183;-83
2022/08/16 02:54:05;;;;;;;8.83;5.83;;;;;;;21.37;82.94;98949.68;1797827;78;21054;-82
2022/08/16 02:56:34;;;;;;;10.72;5.58;;;;;;;21.41;82.49;98949.98;1798594;77;21114;-84
2022/08/16 02:59:02;;;;;;;8.88;5.90;;;;;;;21.36;82.54;98940.47;1768320;79;21141;-81
2022/08/16 03:01:31;;;;;;;9.00;6.25;;;;;;;21.30;81.92;98940.97;1792297;78;21062;-80
2022/08/16 03:03:58;;;;;;;6.12;5.42;;;;;;;21.26;81.75;98945.27;1789788;77;21288;-82
2022/08/16 03:06:26;;;;;;;10.93;6.42;;;;;;;21.28;81.66;98937.71;1811665;79;20988;-82
2022/08/16 03:08:53;;;;;;;6.85;5.45;;;;;;;21.35;81.46;98935.62;1807720;79;20993;-81
2022/08/16 03:11:20;;;;;;;7.67;6.08;;;;;;;21.34;81.42;98934.52;1807323;77;21059;-80
2022/08/16 03:13:50;;;;;;;9.58;5.75;;;;;;;21.30;81.21;98938.27;1792014;77;20968;-83
2022/08/16 03:16:18;;;;;;;12.07;5.65;;;;;;;21.25;81.12;98933.36;1806236;77;21978;-81
2022/08/16 03:18:44;;;;;;;9.75;6.12;;;;;;;21.28;81.30;98940.95;1803711;77;21024;-80
2022/08/16 03:21:15;;;;;;;10.23;6.45;;;;;;;21.35;80.97;98933.46;1809253;77;21416;-79
2022/08/16 03:23:40;;;;;;;10.68;6.78;;;;;;;21.33;81.12;98936.41;1793873;77;20956;-78
2022/08/16 03:26:07;;;;;;;7.45;6.10;;;;;;;21.32;81.88;98941.52;1784328;79;20903;-78
2022/08/16 03:28:34;;;;;;;12.33;6.08;;;;;;;21.30;82.47;98936.92;1801976;77;21199;-77
2022/08/16 03:31:01;;;;;;;7.42;5.75;;;;;;;21.36;82.67;98933.21;1809199;77;21009;-80
2022/08/16 03:33:27;;;;;;;7.97;5.53;;;;;;;21.41;82.63;98941.87;1794032;80;21136;-79
2022/08/16 03:35:58;;;;;;;7.97;7.10;;;;;;;21.37;83.11;98940.22;1795406;77;21051;-78
2022/08/16 03:38:28;;;;;;;13.45;6.83;;;;;;;21.34;83.29;98937.22;1762632;80;21061;-81
2022/08/16 03:40:55;;;;;;;8.83;5.62;;;;;;;21.31;83.81;98937.75;1786963;78;21203;-78
2022/08/16 03:43:26;;;;;;;8.95;6.03;;;;;;;21.38;83.50;98935.11;1778161;80;21050;-81
2022/08/16 03:45:54;;;;;;;9.78;6.20;;;;;;;21.46;83.16;98935.72;1758591;80;21040;-81
2022/08/16 03:48:24;;;;;;;12.82;7.22;;;;;;;21.47;83.15;98941.41;1758483;80;21543;-80
2022/08/16 03:50:51;;;;;;;8.83;6.00;;;;;;;21.46;82.53;98938.42;1791622;78;21017;-81
2022/08/16 03:53:18;;;;;;;9.00;5.92;;;;;;;21.50;81.53;98946.28;1810564;77;21106;-80
2022/08/16 03:55:45;;;;;;;8.25;6.45;;;;;;;21.55;80.69;98944.97;1815052;77;21105;-83
2022/08/16 03:58:11;;;;;;;12.82;6.97;;;;;;;21.53;80.33;98947.13;1806409;78;21067;-81
2022/08/16 04:00:38;;;;;;;9.78;6.83;;;;;;;21.50;80.75;98950.33;1754290;80;21037;-82
2022/08/16 04:03:08;;;;;;;9.33;6.08;;;;;;;21.48;80.86;98938.97;1804906;77;21070;-84
2022/08/16 04:05:40;;;;;;;9.45;6.33;;;;;;;21.54;80.77;98948.77;1804716;77;21824;-82
2022/08/16 04:08:07;;;;;;;8.38;6.47;;;;;;;21.64;80.65;98950.73;1807081;77;21478;-83
2022/08/16 04:10:35;;;;;;;10.48;6.97;;;;;;;21.67;81.12;98940.21;1806047;77;21046;-82
2022/08/16 04:13:02;;;;;;;12.05;7.22;;;;;;;21.65;80.91;98946.39;1774098;79;21093;-81
2022/08/16 04:15:29;;;;;;;10.72;6.17;;;;;;;21.65;81.05;98942.88;1809578;77;21037;-81
2022/08/16 04:17:58;;;;;;;10.58;6.33;;;;;;;21.71;80.64;98944.02;1768733;77;21116;-80
2022/08/16 04:20:27;;;;;;;9.68;6.10;;;;;;;21.81;81.12;98952.73;1792049;77;21022;-81
2022/08/16 04:22:55;;;;;;;13.05;7.05;;;;;;;21.82;80.90;98946.78;1813030;77;21013;-79
2022/08/16 04:25:22;;;;;;;10.32;6.83;;;;;;;21.82;80.62;98945.42;1810136;77;21022;-82
2022/08/16 04:27:52;;;;;;;8.70;5.83;;;;;;;21.79;79.56;98940.81;1805710;77;21030;-83
2022/08/16 04:30:20;;;;;;;8.55;5.65;;;;;;;21.83;78.94;98941.12;1818352;77;21178;-80
2022/08/16 04:32:48;;;;;;;8.95;6.60;;;;;;;21.91;78.21;98935.20;1814538;77;21046;-83
2022/08/16 04:35:17;;;;;;;8.45;7.30;;;;;;;21.93;78.01;98939.00;1809862;77;21096;-81
2022/08/16 04:37:45;;;;;;;7.25;6.65;;;;;;;21.96;78.27;98932.54;1787241;80;21062;-81
2022/08/16 04:40:17;;;;;;;9.60;6.85;;;;;;;21.99;78.19;98933.34;1814601;77;21038;-80
2022/08/16 04:42:44;;;;;;;10.78;6.37;;;;;;;22.03;77.62;98930.12;1801003;77;21211;-79
2022/08/16 04:45:13;;;;;;;11.50;6.58;;;;;;;22.12;77.45;98930.72;1809222;77;21027;-82
2022/08/16 04:47:40;;;;;;;8.80;6.40;;;;;;;22.27;77.27;98931.88;1785784;78;21073;-80
2022/08/16 04:50:19;;;;;;;9.10;6.72;;;;;;;22.32;76.55;98936.77;1810779;77;21023;-81
2022/08/16 04:52:57;;;;;;;12.18;5.90;;;;;;;22.35;75.87;98941.66;1791026;77;21081;-82
2022/08/16 04:55:25;;;;;;;11.10;6.83;;;;;;;22.38;75.84;98943.02;1814576;77;21227;-81
2022/08/16 04:57:53;;;;;;;13.83;6.70;;;;;;;22.37;75.39;98945.46;1814316;77;21050;-82
2022/08/16 05:00:24;;;;;;;7.70;6.47;;;;;;;22.45;75.64;98940.88;1796045;77;21026;-84
2022/08/16 05:02:53;;;;;;;9.88;6.53;;;;;;;22.54;75.63;98959.59;1775035;79;21538;-82
2022/08/16 05:05:21;;;;;;;7.50;6.45;;;;;;;22.54;75.44;98959.59;1759153;78;21133;-80
2022/08/16 05:07:48;;;;;;;8.35;6.58;;;;;;;22.55;75.60;98969.33;1784805;79;21125;-79
2022/08/16 05:10:15;;;;;;;11.60;6.87;;;;;;;22.55;75.22;98958.50;1803975;78;21066;-80
2022/08/16 05:12:43;;;;;;;7.92;7.00;;;;;;;22.54;75.27;98958.24;1789886;79;21077;-81
2022/08/16 05:15:11;;;;;;;11.00;6.08;;;;;;;22.55;75.30;98954.98;1799990;77;21077;-80
2022/08/16 05:17:38;;;;;;;8.28;6.58;;;;;;;22.63;75.12;98957.17;1808080;79;21096;-81
2022/08/16 05:20:08;;;;;;;9.05;5.90;;;;;;;22.72;75.08;98956.13;1793577;78;21294;-79
2022/08/16 05:22:39;;;;;;;7.75;6.42;;;;;;;22.74;74.44;98960.73;1809162;79;21030;-78
2022/08/16 05:25:07;;;;;;;8.90;6.40;;;;;;;22.72;74.06;98961.54;1810828;78;21530;-82
2022/08/16 05:27:34;;;;;;;8.58;6.20;;;;;;;22.73;74.10;98959.89;1802304;79;21613;-80
2022/08/16 05:30:00;;;;;;;7.58;6.28;;;;;;;22.77;74.25;98961.02;1768850;79;21645;-81
2022/08/16 05:32:27;;;;;;;9.00;5.60;;;;;;;22.89;74.27;98957.22;1803196;79;21182;-82
2022/08/16 05:34:54;;;;;;;11.95;6.40;;;;;;;23.06;73.68;98955.66;1811377;77;21042;-79
2022/08/16 05:37:23;;;;;;;12.33;6.33;;;;;;;23.12;73.06;98966.25;1804096;77;20907;-81
2022/08/16 05:39:50;;;;;;;7.92;6.55;;;;;;;23.15;73.21;98964.33;1807195;78;21061;-80
2022/08/16 05:42:17;;;;;;;12.47;6.37;;;;;;;23.16;72.89;98974.65;1813062;77;21023;-81
2022/08/16 05:44:44;;;;;;;8.73;6.05;;;;;;;23.16;72.91;98983.59;1778405;79;21704;-79
2022/08/16 05:47:11;;;;;;;11.25;6.70;;;;;;;23.16;72.75;98983.59;1808955;78;21056;-81
2022/08/16 05:49:38;;;;;;;8.58;6.95;;;;;;;23.15;72.61;98987.91;1775122;79;21006;-76
2022/08/16 05:52:04;;;;;;;6.85;5.85;;;;;;;23.13;72.59;98980.59;1801680;77;21074;-76
2022/08/16 05:54:33;;;;;;;10.10;6.15;;;;;;;23.20;72.19;98991.16;1802442;78;21058;-81
2022/08/16 05:57:03;;;;;;;7.87;5.75;;;;;;;23.22;71.73;98984.41;1795048;78;21229;-83
2022/08/16 05:59:31;;;;;;;10.70;5.95;;;;;;;23.21;72.18;98984.12;1798023;77;21050;-84
2022/08/16 06:01:58;;;;;;;11.28;7.55;;;;;;;23.18;72.00;98988.73;1810572;77;21010;-86
2022/08/16 06:04:26;;;;;;;9.33;6.33;;;;;;;23.16;71.69;98984.13;1791768;78;21006;-85
2022/08/16 06:06:52;;;;;;;8.98;6.15;;;;;;;23.14;72.03;98983.04;1734770;82;21585;-83
2022/08/16 06:09:19;;;;;;;7.53;5.95;;;;;;;23.14;71.90;98988.98;1744465;80;22235;-84
2022/08/16 06:11:46;;;;;;;7.08;6.08;;;;;;;23.12;71.80;98986.56;1737859;81;21570;-85
2022/08/16 06:14:12;;;;;;;7.53;5.78;;;;;;;23.15;71.55;98987.91;1750001;80;21075;-84
2022/08/16 06:16:41;;;;;;;8.50;6.25;;;;;;;23.25;71.23;98983.04;1730049;81;21049;-85
2022/08/16 06:19:07;;;;;;;10.82;5.70;;;;;;;23.31;71.05;98976.02;1749070;80;20973;-80
2022/08/16 06:21:36;;;;;;;13.68;6.33;;;;;;;23.30;70.65;98990.64;1757022;80;21140;-83
2022/08/16 06:24:03;;;;;;;9.15;6.45;;;;;;;23.26;70.68;98980.07;1752044;79;21028;-84
2022/08/16 06:26:31;;;;;;;8.13;6.08;;;;;;;23.22;70.69;98983.05;1743645;80;21046;-83
2022/08/16 06:28:58;;;;;;;18.42;6.33;;;;;;;23.18;70.94;98980.61;1753513;80;21023;-81
2022/08/16 06:31:29;;;;;;;8.85;6.15;;;;;;;23.14;71.00;98984.91;1734631;81;21102;-81
2022/08/16 06:33:56;;;;;;;8.68;6.20;;;;;;;23.08;71.22;98992.25;1753367;80;21509;-83
2022/08/16 06:36:23;;;;;;;12.03;5.78;;;;;;;23.04;71.76;99003.88;1727923;81;21083;-83
2022/08/16 06:38:51;;;;;;;10.53;6.55;;;;;;;23.04;72.38;99003.32;1758964;80;20991;-83
2022/08/16 06:41:19;;;;;;;8.78;6.08;;;;;;;23.07;72.61;99016.89;1742129;80;20960;-82
2022/08/16 06:43:46;;;;;;;9.68;6.50;;;;;;;23.00;73.09;99030.64;1745072;81;21015;-84
2022/08/16 06:46:27;;;;;;;8.15;6.33;;;;;;;22.92;73.46;99037.94;1758318;80;21191;-83
2022/08/16 06:48:54;;;;;;;9.93;6.95;;;;;;;22.82;74.00;99044.14;1769540;80;20972;-84
2022/08/16 06:51:21;;;;;;;8.00;6.17;;;;;;;22.75;74.38;99048.46;1744783;81;21058;-84
2022/08/16 06:53:47;;;;;;;13.40;7.00;;;;;;;22.74;74.72;99067.67;1747577;80;20992;-84
2022/08/16 06:56:14;;;;;;;11.22;6.85;;;;;;;22.79;74.69;99077.15;1729976;81;21104;-75
2022/08/16 06:58:42;;;;;;;9.45;6.17;;;;;;;22.86;74.41;99083.14;1756574;80;21813;-73
2022/08/16 07:01:11;;;;;;;9.40;6.60;;;;;;;22.87;74.10;99089.36;1732787;81;21535;-75
2022/08/16 07:03:37;;;;;;;8.98;6.85;;;;;;;22.87;74.20;99088.84;1749907;80;21540;-74
2022/08/16 07:06:05;;;;;;;11.05;6.87;;;;;;;22.89;73.70;99090.75;1817183;76;21093;-75
2022/08/16 07:08:33;;;;;;;14.20;7.08;;;;;;;22.95;73.64;99090.23;1823432;76;21078;-74
2022/08/16 07:11:00;;;;;;;14.50;7.00;;;;;;;23.00;73.14;99101.61;1827815;76;21206;-74
2022/08/16 07:13:29;;;;;;;10.25;6.42;;;;;;;23.10;72.05;99086.77;1821447;76;21044;-75
2022/08/16 07:15:58;;;;;;;16.05;7.65;;;;;;;23.19;71.41;99101.43;1822396;76;21053;-73
2022/08/16 07:18:26;;;;;;;13.53;8.03;;;;;;;23.18;70.94;99103.88;1817503;76;21030;-75
2022/08/16 07:20:52;;;;;;;12.63;7.62;;;;;;;23.17;70.95;99104.95;1815910;76;22035;-75
2022/08/16 07:23:20;;;;;;;16.73;7.95;;;;;;;23.16;70.94;99106.05;1829144;76;21523;-73
2022/08/16 07:25:49;;;;;;;14.95;8.60;;;;;;;23.11;71.64;99122.27;1823185;76;21073;-75
2022/08/16 07:28:16;;;;;;;14.03;8.05;;;;;;;23.07;72.30;99137.44;1825360;76;21338;-74
2022/08/16 07:30:44;;;;;;;10.88;8.43;;;;;;;23.01;72.93;99128.98;1828760;76;21084;-74
2022/08/16 07:33:13;;;;;;;13.70;8.83;;;;;;;23.04;73.30;99144.72;1827329;76;21251;-74
2022/08/16 07:35:40;;;;;;;12.53;8.13;;;;;;;23.02;73.76;99127.34;1823277;76;21206;-75
2022/08/16 07:38:06;;;;;;;15.65;8.45;;;;;;;22.91;74.20;99119.73;1827306;76;21041;-72
2022/08/16 07:40:36;;;;;;;14.40;8.65;;;;;;;22.82;74.16;99125.37;1818735;76;21063;-73
2022/08/16 07:43:03;;;;;;;12.10;7.22;;;;;;;22.77;74.77;99140.23;1819573;76;21131;-74
2022/08/16 07:45:32;;;;;;;16.45;7.37;;;;;;;22.78;74.95;99112.09;1792244;76;21056;-74
2022/08/16 07:47:59;;;;;;;14.30;8.28;;;;;;;22.84;74.91;99106.97;1817900;76;21303;-74
2022/08/16 07:50:26;;;;;;;11.05;8.00;;;;;;;22.83;75.12;99121.60;1827861;76;21097;-71
2022/08/16 07:52:53;;;;;;;11.38;8.23;;;;;;;22.84;75.20;99128.62;1827612;76;20990;-75
2022/08/16 07:55:19;;;;;;;11.48;8.15;;;;;;;22.85;75.28;99119.44;1819748;76;21096;-74
2022/08/16 07:57:45;;;;;;;12.88;8.25;;;;;;;22.87;75.73;99129.47;1826924;76;21065;-75
2022/08/16 08:00:13;;;;;;;12.30;7.67;;;;;;;22.96;75.38;99122.99;1821309;76;21243;-74
2022/08/16 08:02:46;;;;;;;14.45;9.30;;;;;;;22.97;75.56;99124.09;1811321;76;22023;-75
2022/08/16 08:05:16;;;;;;;11.03;9.33;;;;;;;22.94;75.84;99123.25;1824432;76;21094;-75
2022/08/16 08:07:43;;;;;;;17.87;9.85;;;;;;;22.91;76.33;99118.38;1814305;76;21049;-76
2022/08/16 08:10:10;;;;;;;16.85;9.73;;;;;;;22.85;76.60;99109.97;1826856;76;20984;-78
2022/08/16 08:12:38;;;;;;;12.80;8.23;;;;;;;22.89;76.80;99122.41;1824725;76;21057;-74
2022/08/16 08:15:07;;;;;;;15.58;8.38;;;;;;;22.93;76.19;99110.80;1829883;76;21018;-74
2022/08/16 08:17:37;;;;;;;14.28;8.20;;;;;;;22.90;76.66;99105.91;1824688;76;21548;-74
2022/08/16 08:20:06;;;;;;;12.80;7.72;;;;;;;22.85;76.91;99107.77;1811540;76;21030;-75
2022/08/16 08:22:33;;;;;;;9.45;7.37;;;;;;;22.84;77.10;99117.80;1830893;76;21092;-76
2022/08/16 08:25:02;;;;;;;8.05;5.67;;;;;;;22.78;77.47;99114.25;1824820;76;21671;-76
2022/08/16 08:27:30;;;;;;;8.08;5.55;;;;;;;22.78;77.49;99121.02;1821178;76;21542;-77
2022/08/16 08:29:57;;;;;;;6.45;5.45;;;;;;;22.73;77.09;99118.83;1824957;76;21022;-76
2022/08/16 08:32:27;;;;;;;10.53;7.53;;;;;;;22.64;77.24;99121.75;1823050;76;21526;-77
2022/08/16 08:34:57;;;;;;;7.78;6.12;;;;;;;22.55;77.56;99116.84;1809159;77;20978;-78
2022/08/16 08:37:24;;;;;;;7.95;5.80;;;;;;;22.47;78.46;99117.34;1831513;76;21826;-77
2022/08/16 08:39:54;;;;;;;8.75;5.33;;;;;;;22.48;79.05;99112.19;1834113;76;21030;-75
2022/08/16 08:42:21;;;;;;;8.13;5.30;;;;;;;22.52;79.58;99118.73;1819738;76;21100;-77
2022/08/16 08:44:47;;;;;;;8.45;5.55;;;;;;;22.44;80.36;99111.63;1820752;76;22010;-75
2022/08/16 08:47:14;;;;;;;10.05;5.80;;;;;;;22.26;80.72;99115.03;1827423;76;21030;-74
2022/08/16 08:49:41;;;;;;;8.10;4.95;;;;;;;22.09;81.33;99119.20;1807688;76;21241;-75
2022/08/16 08:52:10;;;;;;;10.82;5.78;;;;;;;22.02;81.53;99123.20;1825375;77;21128;-73
2022/08/16 08:54:36;;;;;;;7.85;5.70;;;;;;;21.99;81.57;99128.59;1817481;76;21060;-72
2022/08/16 08:57:04;;;;;;;6.35;4.80;;;;;;;21.94;82.01;99124.48;1811180;76;21235;-72
2022/08/16 08:59:35;;;;;;;6.17;4.83;;;;;;;21.85;82.31;99129.56;1808710;76;21549;-73
2022/08/16 09:02:03;;;;;;;5.60;3.95;;;;;;;21.72;82.56;99117.83;1818374;77;21202;-74
2022/08/16 09:04:32;;;;;;;6.08;4.33;;;;;;;21.69;82.86;99125.92;1811450;77;21078;-75
2022/08/16 09:07:02;;;;;;;5.67;4.53;;;;;;;21.72;83.05;99126.73;1810283;77;21061;-75
2022/08/16 09:09:31;;;;;;;5.78;3.85;;;;;;;21.68;83.19;99132.38;1797742;77;21043;-74
2022/08/16 09:11:58;;;;;;;7.70;4.65;;;;;;;21.59;83.50;99133.91;1807192;77;21259;-74
2022/08/16 09:14:25;;;;;;;8.40;4.50;;;;;;;21.53;83.86;99138.98;1802964;77;21239;-75
2022/08/16 09:19:55;;;;;;;8.70;5.08;;;;;;;21.65;84.40;99139.64;1871501;75;22326;-77
2022/08/16 09:22:25;;;;;;;8.40;5.87;;;;;;;21.60;84.66;99146.36;1814054;77;22037;-76
2022/08/16 09:24:52;;;;;;;11.03;6.08;;;;;;;21.63;85.16;99158.00;1829124;77;21104;-75
2022/08/16 09:27:18;;;;;;;12.45;5.78;;;;;;;21.76;85.66;99161.65;1832459;77;21053;-73
2022/08/16 09:29:45;;;;;;;9.68;6.97;;;;;;;21.88;85.45;99161.48;1813981;77;21073;-73
2022/08/16 09:32:12;;;;;;;8.60;6.45;;;;;;;21.92;85.55;99155.03;1822614;76;21039;-76
2022/08/16 09:34:38;;;;;;;8.13;6.72;;;;;;;21.89;85.38;99159.08;1727458;78;21060;-74
2022/08/16 09:37:07;;;;;;;8.30;6.50;;;;;;;21.89;85.39;99167.19;1791092;78;21163;-76
2022/08/16 09:39:33;;;;;;;7.67;6.87;;;;;;;21.91;85.17;99158.28;1799496;78;20926;-76
2022/08/16 09:42:01;;;;;;;11.97;6.70;;;;;;;21.94;85.42;99163.70;1801831;79;21010;-78
2022/08/16 09:44:29;;;;;;;8.35;6.42;;;;;;;21.93;85.41;99164.79;1801057;78;21004;-73
2022/08/16 09:46:57;;;;;;;9.10;6.45;;;;;;;22.00;85.31;99151.88;1804643;78;21068;-76
2022/08/16 09:49:25;;;;;;;7.83;6.70;;;;;;;22.17;85.19;99160.67;1804055;78;21559;-75
2022/08/16 09:51:56;;;;;;;13.08;6.72;;;;;;;22.31;84.82;99163.78;1805091;78;20990;-76
2022/08/16 09:54:21;;;;;;;7.72;6.83;;;;;;;22.47;84.76;99163.89;1791469;78;21044;-79
2022/08/16 09:56:48;;;;;;;7.75;6.50;;;;;;;22.69;84.29;99157.78;1800265;78;20997;-77
2022/08/16 09:59:15;;;;;;;8.55;7.03;;;;;;;22.99;83.46;99163.10;1798098;78;21142;-70
2022/08/16 10:01:43;;;;;;;8.30;6.58;;;;;;;23.16;81.81;99165.10;1803312;78;21553;-73
2022/08/16 10:04:10;;;;;;;11.00;7.85;;;;;;;23.23;81.38;99168.10;1786600;78;21045;-78
2022/08/16 10:06:37;;;;;;;8.63;6.92;;;;;;;23.26;80.51;99160.27;1806322;78;21034;-77
2022/08/16 10:09:05;;;;;;;8.25;7.35;;;;;;;23.27;80.42;99161.88;1772440;78;21054;-76
2022/08/16 10:14:17;;;;;;;8.93;8.03;;;;;;;23.32;79.93;99166.52;1802611;78;21205;-78
2022/08/16 10:16:44;;;;;;;10.58;8.10;;;;;;;23.22;79.62;99157.81;1806396;78;21139;-75
2022/08/16 10:19:12;;;;;;;8.83;7.92;;;;;;;23.12;80.08;99161.30;1797372;78;21115;-75
2022/08/16 10:21:39;;;;;;;11.55;7.75;;;;;;;23.18;80.55;99156.72;1773421;78;21103;-77
2022/08/16 10:24:06;;;;;;;12.23;8.58;;;;;;;23.29;80.11;99140.74;1803766;78;21496;-78
2022/08/16 10:26:35;;;;;;;11.70;7.97;;;;;;;23.42;80.19;99137.27;1802673;78;21806;-79
2022/08/16 10:29:02;;;;;;;8.70;7.62;;;;;;;23.56;79.56;99142.44;1808244;78;21500;-77
2022/08/16 10:31:32;;;;;;;9.55;7.40;;;;;;;23.68;79.10;99144.38;1800226;78;21085;-77
2022/08/16 10:34:00;;;;;;;9.85;7.47;;;;;;;23.83;79.03;99151.73;1798830;78;21493;-78
2022/08/16 10:36:27;;;;;;;8.48;7.33;;;;;;;24.01;78.04;99151.76;1765781;79;21251;-77
2022/08/16 10:38:54;;;;;;;11.88;7.78;;;;;;;24.06;77.58;99159.88;1764179;79;21194;-78
2022/08/16 10:41:23;;;;;;;9.58;8.35;;;;;;;24.01;77.01;99157.19;1774106;79;21080;-76
2022/08/16 10:43:50;;;;;;;9.18;7.90;;;;;;;23.92;76.84;99160.16;1762379;79;20996;-76
2022/08/16 10:46:17;;;;;;;10.75;7.80;;;;;;;23.78;77.12;99167.14;1780503;79;21025;-76
2022/08/16 10:48:44;;;;;;;9.83;6.90;;;;;;;23.67;77.67;99175.82;1769524;79;21108;-77
2022/08/16 10:51:11;;;;;;;8.70;7.60;;;;;;;23.60;77.96;99180.13;1766823;79;21122;-78
2022/08/16 10:53:42;;;;;;;9.88;7.75;;;;;;;23.45;78.30;99194.48;1743868;80;21478;-76
2022/08/16 10:56:11;;;;;;;10.65;8.30;;;;;;;23.31;78.61;99194.68;1721444;81;21083;-73
2022/08/16 10:58:39;;;;;;;10.10;8.18;;;;;;;23.19;79.10;99194.91;1728054;81;21676;-72
2022/08/16 11:01:07;;;;;;;8.63;7.45;;;;;;;23.19;79.71;99205.75;1735693;80;21020;-74
2022/08/16 11:03:36;;;;;;;11.90;7.97;;;;;;;23.25;79.91;99204.68;1730139;81;21128;-75
2022/08/16 11:06:05;;;;;;;13.58;7.60;;;;;;;23.27;80.32;99207.13;1729701;81;21041;-78
2022/08/16 11:08:39;;;;;;;11.08;7.62;;;;;;;23.26;80.41;99198.75;1736434;81;21028;-78
2022/08/16 11:11:05;;;;;;;10.23;7.42;;;;;;;23.26;79.81;99200.91;1728393;81;21548;-77
2022/08/16 11:13:33;;;;;;;7.47;6.78;;;;;;;23.35;79.57;99203.39;1692933;84;21557;-77
2022/08/16 11:16:00;;;;;;;9.48;7.22;;;;;;;23.49;78.91;99205.05;1726652;81;22554;-78
2022/08/16 11:18:34;;;;;;;7.87;7.12;;;;;;;23.59;78.91;99199.40;1711581;83;21561;-77
2022/08/16 11:21:01;;;;;;;8.08;7.37;;;;;;;23.68;78.38;99204.03;1736400;81;21573;-78
2022/08/16 11:23:27;;;;;;;8.60;6.83;;;;;;;23.78;77.70;99206.47;1743860;81;21125;-78
2022/08/16 11:25:55;;;;;;;11.53;6.65;;;;;;;23.90;77.39;99193.52;1723918;81;21204;-77
2022/08/16 11:28:22;;;;;;;9.33;7.35;;;;;;;24.04;75.99;99201.39;1712768;83;21285;-78
2022/08/16 11:30:49;;;;;;;10.28;8.40;;;;;;;24.06;75.72;99202.48;1729290;81;21127;-76
2022/08/16 11:33:17;;;;;;;11.38;7.78;;;;;;;24.01;75.90;99205.18;1722369;81;21534;-76
2022/08/16 11:35:44;;;;;;;12.50;8.43;;;;;;;23.98;75.54;99199.77;1727168;81;21060;-79
2022/08/16 11:38:16;;;;;;;13.03;8.70;;;;;;;23.95;75.31;99203.00;1701860;83;21056;-73